createdAt,value
2023-03-03T00:01:45.552Z,32.10
2023-03-03T00:04:13.702Z,34.43
2023-03-03T00:06:42.814Z,33.30
2023-03-03T00:09:10.741Z,29.77
2023-03-03T00:11:38.768Z,32.37
2023-03-03T00:14:14.720Z,32.83
2023-03-03T00:16:42.914Z,33.20
2023-03-03T00:19:14.514Z,32.50
2023-03-03T00:21:45.648Z,33.07
2023-03-03T00:24:18.763Z,29.60
2023-03-03T00:26:47.288Z,30.10
2023-03-03T00:29:32.280Z,29.77
2023-03-03T00:32:08.786Z,31.53
2023-03-03T00:34:37.498Z,27.80
2023-03-03T00:37:19.279Z,30.53
2023-03-03T00:39:47.348Z,29.50
2023-03-03T00:42:15.580Z,29.20
2023-03-03T00:44:44.390Z,32.23
2023-03-03T00:47:24.334Z,32.60
2023-03-03T00:49:52.568Z,31.50
2023-03-03T00:52:21.905Z,33.53
2023-03-03T00:54:51.710Z,28.67
2023-03-03T00:57:19.442Z,29.50
2023-03-03T00:59:48.610Z,30.30
2023-03-03T01:02:16.448Z,36.03
2023-03-03T01:04:45.768Z,30.80
2023-03-03T01:07:13.412Z,32.27
2023-03-03T01:09:43.206Z,31.53
2023-03-03T01:12:11.453Z,29.97
2023-03-03T01:14:39.371Z,28.90
2023-03-03T01:17:07.934Z,32.40
2023-03-03T01:19:35.792Z,29.60
2023-03-03T01:22:03.882Z,29.73
2023-03-03T01:24:31.748Z,30.33
2023-03-03T01:27:00.906Z,30.53
2023-03-03T01:29:28.890Z,26.33
2023-03-03T01:31:57.217Z,29.67
2023-03-03T01:34:25.415Z,24.73
2023-03-03T01:36:53.541Z,32.17
2023-03-03T01:39:21.331Z,27.10
2023-03-03T01:41:49.032Z,26.13
2023-03-03T01:44:18.413Z,28.97
2023-03-03T01:46:52.620Z,34.40
2023-03-03T01:49:24.213Z,30.70
2023-03-03T01:51:54.500Z,30.53
2023-03-03T01:54:24.620Z,35.80
2023-03-03T01:56:54.694Z,35.47
2023-03-03T01:59:25.774Z,39.57
2023-03-03T02:01:54.659Z,35.93
2023-03-03T02:04:22.328Z,38.40
2023-03-03T02:06:53.029Z,41.37
2023-03-03T02:09:23.481Z,41.20
2023-03-03T02:11:53.139Z,40.87
2023-03-03T02:14:21.005Z,40.03
2023-03-03T02:16:50.139Z,41.37
2023-03-03T02:19:22.471Z,38.30
2023-03-03T02:21:50.420Z,40.90
2023-03-03T02:24:20.689Z,39.37
2023-03-03T02:26:50.327Z,42.60
2023-03-03T02:29:18.035Z,41.20
2023-03-03T02:31:45.950Z,43.73
2023-03-03T02:34:16.602Z,41.33
2023-03-03T02:36:44.312Z,43.00
2023-03-03T02:39:13.285Z,43.87
2023-03-03T02:41:44.208Z,41.33
2023-03-03T02:44:15.865Z,39.60
2023-03-03T02:46:46.578Z,43.63
2023-03-03T02:49:16.296Z,39.10
2023-03-03T02:51:44.757Z,44.40
2023-03-03T02:54:15.283Z,42.50
2023-03-03T02:56:43.567Z,42.77
2023-03-03T02:59:11.636Z,45.27
2023-03-03T03:01:46.483Z,44.77
2023-03-03T03:04:18.911Z,43.33
2023-03-03T03:06:50.274Z,42.00
2023-03-03T03:09:19.451Z,44.10
2023-03-03T03:11:49.660Z,44.07
2023-03-03T03:14:21.779Z,43.87
2023-03-03T03:16:51.039Z,41.47
2023-03-03T03:19:19.706Z,37.43
2023-03-03T03:21:47.954Z,43.40
2023-03-03T03:24:16.798Z,45.83
2023-03-03T03:26:49.522Z,44.53
2023-03-03T03:29:17.201Z,39.63
2023-03-03T03:31:45.424Z,43.70
2023-03-03T03:34:14.495Z,41.10
2023-03-03T03:36:43.039Z,42.17
2023-03-03T03:39:11.924Z,49.50
2023-03-03T03:41:43.540Z,46.47
2023-03-03T03:44:11.758Z,43.00
2023-03-03T03:46:39.485Z,42.30
2023-03-03T03:49:07.889Z,40.33
2023-03-03T03:51:41.190Z,41.07
2023-03-03T03:54:10.380Z,40.00
2023-03-03T03:56:38.955Z,38.33
2023-03-03T03:59:08.547Z,38.40
2023-03-03T04:01:37.228Z,43.80
2023-03-03T04:04:05.889Z,41.50
2023-03-03T04:06:34.690Z,41.53
2023-03-03T04:09:04.564Z,41.50
2023-03-03T04:11:33.315Z,42.20
2023-03-03T04:14:01.332Z,44.30
2023-03-03T04:16:29.320Z,44.80
2023-03-03T04:18:57.023Z,42.33
2023-03-03T04:21:25.610Z,42.23
2023-03-03T04:23:55.480Z,41.10
2023-03-03T04:26:25.261Z,39.50
2023-03-03T04:28:53.293Z,49.47
2023-03-03T04:31:22.337Z,38.43
2023-03-03T04:33:50.541Z,40.40
2023-03-03T04:36:19.139Z,41.00
2023-03-03T04:38:47.280Z,45.03
2023-03-03T04:41:14.983Z,39.80
2023-03-03T04:43:44.747Z,39.07
2023-03-03T04:46:14.131Z,42.10
2023-03-03T04:48:41.968Z,40.50
2023-03-03T04:51:10.756Z,39.30
2023-03-03T04:53:39.380Z,45.07
2023-03-03T04:56:09.112Z,36.73
2023-03-03T04:58:37.647Z,46.83
2023-03-03T05:01:06.761Z,38.13
2023-03-03T05:03:35.359Z,37.67
2023-03-03T05:06:03.082Z,43.47
2023-03-03T05:08:30.976Z,36.20
2023-03-03T05:10:59.741Z,40.83
2023-03-03T05:13:28.149Z,37.33
2023-03-03T05:15:56.516Z,41.60
2023-03-03T05:18:27.869Z,46.70
2023-03-03T05:20:55.954Z,51.33
2023-03-03T05:23:24.804Z,49.73
2023-03-03T05:25:52.427Z,49.40
2023-03-03T05:28:20.161Z,50.27
2023-03-03T05:30:48.245Z,47.20
2023-03-03T05:33:16.823Z,51.70
2023-03-03T05:35:46.103Z,53.37
2023-03-03T05:38:14.175Z,58.33
2023-03-03T05:40:41.847Z,54.30
2023-03-03T05:43:09.472Z,53.07
2023-03-03T05:45:37.129Z,49.13
2023-03-03T05:48:04.977Z,51.50
2023-03-03T05:50:33.157Z,49.33
2023-03-03T05:53:02.900Z,50.97
2023-03-03T05:55:32.214Z,59.70
2023-03-03T05:57:59.877Z,51.37
2023-03-03T06:00:28.073Z,49.97
2023-03-03T06:02:56.107Z,51.70
2023-03-03T06:05:23.847Z,51.60
2023-03-03T06:07:51.812Z,50.83
2023-03-03T06:10:21.027Z,54.00
2023-03-03T06:12:53.664Z,51.30
2023-03-03T06:15:23.467Z,55.00
2023-03-03T06:17:51.283Z,56.47
2023-03-03T06:20:19.460Z,53.00
2023-03-03T06:22:47.067Z,52.80
2023-03-03T06:25:14.971Z,57.53
2023-03-03T06:27:45.126Z,51.57
2023-03-03T06:30:14.164Z,49.37
2023-03-03T06:32:42.270Z,58.07
2023-03-03T06:35:09.988Z,51.10
2023-03-03T06:37:38.835Z,51.83
2023-03-03T06:40:07.121Z,55.87
2023-03-03T06:42:34.985Z,54.80
2023-03-03T06:45:04.098Z,51.83
2023-03-03T06:47:32.191Z,51.73
2023-03-03T06:49:59.769Z,53.20
2023-03-03T06:52:28.733Z,55.37
2023-03-03T06:54:57.077Z,60.07
2023-03-03T06:57:27.206Z,49.77
2023-03-03T06:59:56.525Z,51.63
2023-03-03T07:02:25.527Z,54.03
2023-03-03T07:04:54.508Z,62.27
2023-03-03T07:07:22.850Z,53.60
2023-03-03T07:09:52.153Z,53.30
2023-03-03T07:12:22.477Z,54.83
2023-03-03T07:14:55.956Z,55.40
2023-03-03T07:17:26.606Z,53.30
2023-03-03T07:19:54.806Z,59.77
2023-03-03T07:22:23.369Z,50.57
2023-03-03T07:24:53.263Z,59.50
2023-03-03T07:27:23.803Z,51.07
2023-03-03T07:29:52.631Z,60.63
2023-03-03T07:32:27.072Z,57.00
2023-03-03T07:34:57.413Z,66.80
2023-03-03T07:37:30.566Z,66.70
2023-03-03T07:39:58.723Z,63.50
2023-03-03T07:42:28.746Z,59.77
2023-03-03T07:45:26.234Z,57.53
2023-03-03T07:47:57.017Z,55.73
2023-03-03T07:50:26.910Z,49.90
2023-03-03T07:52:56.742Z,53.70
2023-03-03T07:55:31.000Z,57.77
2023-03-03T07:58:03.793Z,51.53
2023-03-03T08:00:50.609Z,66.27
2023-03-03T08:03:19.408Z,61.80
2023-03-03T08:05:49.611Z,62.17
2023-03-03T08:08:31.364Z,63.90
2023-03-03T08:10:59.708Z,62.57
2023-03-03T08:13:30.008Z,66.13
2023-03-03T08:16:00.739Z,53.50
2023-03-03T08:18:30.325Z,60.40
2023-03-03T08:21:00.935Z,68.13
2023-03-03T08:23:28.641Z,50.30
2023-03-03T08:25:56.707Z,60.00
2023-03-03T08:28:24.659Z,37.30
2023-03-03T08:31:02.659Z,42.47
2023-03-03T08:33:33.940Z,49.03
2023-03-03T08:36:03.018Z,49.13
2023-03-03T08:38:31.031Z,54.40
2023-03-03T08:40:58.848Z,52.43
2023-03-03T08:43:26.494Z,52.83
2023-03-03T08:45:54.972Z,57.10
2023-03-03T08:48:22.852Z,60.60
2023-03-03T08:50:50.876Z,65.63
2023-03-03T08:53:20.233Z,62.27
2023-03-03T08:55:48.861Z,54.27
2023-03-03T08:58:17.522Z,56.50
2023-03-03T09:00:48.292Z,53.13
2023-03-03T09:03:17.548Z,56.23
2023-03-03T09:05:45.737Z,47.30
2023-03-03T09:08:13.678Z,31.03
2023-03-03T09:10:42.893Z,33.10
2023-03-03T09:13:14.777Z,33.50
2023-03-03T09:15:43.032Z,34.67
2023-03-03T09:18:18.635Z,41.43
2023-03-03T09:20:47.253Z,44.03
2023-03-03T09:23:33.937Z,42.57
2023-03-03T09:26:16.613Z,39.03
2023-03-03T09:28:44.917Z,32.53
2023-03-03T09:31:21.718Z,34.30
2023-03-03T09:33:51.906Z,31.13
2023-03-03T09:36:22.367Z,33.27
2023-03-03T09:38:50.230Z,35.80
2023-03-03T09:41:30.136Z,41.63
2023-03-03T09:44:07.779Z,36.53
2023-03-03T09:46:39.573Z,32.03
2023-03-03T09:49:16.927Z,32.63
2023-03-03T09:51:51.860Z,28.70
2023-03-03T09:54:25.364Z,30.70
2023-03-03T09:57:00.094Z,35.17
2023-03-03T09:59:35.780Z,37.97
2023-03-03T10:02:12.565Z,39.60
2023-03-03T10:04:54.868Z,38.23
2023-03-03T10:07:38.093Z,36.23
2023-03-03T10:10:29.865Z,35.20
2023-03-03T10:13:13.917Z,27.87
2023-03-03T10:15:48.284Z,27.60
2023-03-03T10:18:24.592Z,20.70
2023-03-03T10:21:01.372Z,22.63
2023-03-03T10:23:38.717Z,24.57
2023-03-03T10:26:10.955Z,25.00
2023-03-03T10:28:53.793Z,24.50
2023-03-03T10:31:29.245Z,24.83
2023-03-03T10:34:00.744Z,27.33
2023-03-03T10:36:34.725Z,19.87
2023-03-03T10:39:18.624Z,24.80
2023-03-03T10:41:51.314Z,24.10
2023-03-03T10:44:33.167Z,24.53
2023-03-03T10:47:15.636Z,21.20
2023-03-03T10:49:54.037Z,23.63
2023-03-03T10:52:26.607Z,29.20
2023-03-03T10:55:06.044Z,19.03
2023-03-03T10:57:39.454Z,30.00
2023-03-03T11:00:23.080Z,18.63
2023-03-03T11:02:57.589Z,19.60
2023-03-03T11:05:35.917Z,20.60
2023-03-03T11:08:08.531Z,23.93
2023-03-03T11:10:47.119Z,26.73
2023-03-03T11:13:17.543Z,23.07
2023-03-03T11:15:54.319Z,24.83
2023-03-03T11:18:29.630Z,25.63
2023-03-03T11:21:03.022Z,25.67
2023-03-03T11:23:40.264Z,27.30
2023-03-03T11:26:10.494Z,24.67
2023-03-03T11:28:47.995Z,33.77
2023-03-03T11:31:21.988Z,29.73
2023-03-03T11:33:56.564Z,36.80
2023-03-03T11:36:28.359Z,29.50
2023-03-03T11:38:58.132Z,28.47
2023-03-03T11:41:31.332Z,30.60
2023-03-03T11:44:00.829Z,39.67
2023-03-03T11:46:35.607Z,43.93
2023-03-03T11:49:06.143Z,48.20
2023-03-03T11:51:40.779Z,40.60
2023-03-03T11:54:11.942Z,43.10
2023-03-03T11:56:41.611Z,37.53
2023-03-03T11:59:29.624Z,41.80
2023-03-03T12:02:01.146Z,60.57
2023-03-03T12:04:32.940Z,37.33
2023-03-03T12:07:20.014Z,39.30
2023-03-03T12:09:56.140Z,36.33
2023-03-03T12:12:25.370Z,38.63
2023-03-03T12:15:01.505Z,38.53
2023-03-03T12:17:37.494Z,29.40
2023-03-03T12:20:11.174Z,30.07
2023-03-03T12:22:43.355Z,29.97
2023-03-03T12:25:23.413Z,31.37
2023-03-03T12:27:53.813Z,30.10
2023-03-03T12:30:26.894Z,26.43
2023-03-03T12:33:12.173Z,28.87
2023-03-03T12:35:45.272Z,25.70
2023-03-03T12:38:19.484Z,27.20
2023-03-03T12:40:53.593Z,27.43
2023-03-03T12:43:31.082Z,26.90
2023-03-03T12:46:02.670Z,29.30
2023-03-03T12:48:37.459Z,30.80
2023-03-03T12:51:11.998Z,25.30
2023-03-03T12:53:45.902Z,33.60
2023-03-03T12:56:14.830Z,34.90
2023-03-03T12:58:48.511Z,35.47
2023-03-03T13:01:22.861Z,32.00
2023-03-03T13:03:56.154Z,29.10
2023-03-03T13:06:28.411Z,28.37
2023-03-03T13:09:02.288Z,27.13
2023-03-03T13:11:38.492Z,32.43
2023-03-03T13:14:12.621Z,30.37
2023-03-03T13:16:44.670Z,30.27
2023-03-03T13:19:15.423Z,28.73
2023-03-03T13:21:48.439Z,31.23
2023-03-03T13:24:19.099Z,28.57
2023-03-03T13:26:50.877Z,31.23
2023-03-03T13:29:22.323Z,31.63
2023-03-03T13:31:52.952Z,34.27
2023-03-03T13:34:25.809Z,32.97
2023-03-03T13:36:58.173Z,30.43
2023-03-03T13:39:28.633Z,29.13
2023-03-03T13:41:57.993Z,32.17
2023-03-03T13:44:28.992Z,29.50
2023-03-03T13:47:02.161Z,30.37
2023-03-03T13:49:36.687Z,29.97
2023-03-03T13:52:08.333Z,29.17
2023-03-03T13:54:44.878Z,36.47
2023-03-03T13:57:18.714Z,30.53
2023-03-03T13:59:51.630Z,32.67
2023-03-03T14:02:37.715Z,28.00
2023-03-03T14:05:12.765Z,30.27
2023-03-03T14:07:43.970Z,30.30
2023-03-03T14:10:18.440Z,30.67
2023-03-03T14:12:48.594Z,34.03
2023-03-03T14:15:21.732Z,31.20
2023-03-03T14:17:56.141Z,31.60
2023-03-03T14:20:27.977Z,31.93
2023-03-03T14:22:58.186Z,29.60
2023-03-03T14:25:26.684Z,34.13
2023-03-03T14:28:04.998Z,31.90
2023-03-03T14:30:34.954Z,31.50
2023-03-03T14:33:04.969Z,28.93
2023-03-03T14:35:34.628Z,26.93
2023-03-03T14:38:04.807Z,30.20
2023-03-03T14:40:33.577Z,30.17
2023-03-03T14:43:02.910Z,31.67
2023-03-03T14:45:33.796Z,26.50
2023-03-03T14:48:06.907Z,24.33
2023-03-03T14:50:36.599Z,24.57
2023-03-03T14:53:09.885Z,28.93
2023-03-03T14:55:42.979Z,30.20
2023-03-03T14:58:27.528Z,28.83
2023-03-03T15:01:08.012Z,26.97
2023-03-03T15:03:38.485Z,21.67
2023-03-03T15:06:11.565Z,23.93
2023-03-03T15:08:41.483Z,22.63
2023-03-03T15:11:13.774Z,25.07
2023-03-03T15:13:41.571Z,26.80
2023-03-03T15:16:13.875Z,24.50
2023-03-03T15:19:06.574Z,24.83
2023-03-03T15:21:36.051Z,25.73
2023-03-03T15:24:07.701Z,33.80
2023-03-03T15:26:42.331Z,23.70
2023-03-03T15:29:17.311Z,25.57
2023-03-03T15:31:50.530Z,26.57
2023-03-03T15:34:30.346Z,23.30
2023-03-03T15:37:00.802Z,24.83
2023-03-03T15:39:33.826Z,42.63
2023-03-03T15:42:04.016Z,29.20
2023-03-03T15:44:34.732Z,23.70
2023-03-03T15:47:09.977Z,23.60
2023-03-03T15:49:46.615Z,26.20
2023-03-03T15:52:24.504Z,26.70
2023-03-03T15:55:00.212Z,26.00
2023-03-03T15:57:31.337Z,33.50
2023-03-03T16:00:16.259Z,21.80
2023-03-03T16:02:48.980Z,30.50
2023-03-03T16:05:21.730Z,28.50
2023-03-03T16:07:55.411Z,27.77
2023-03-03T16:10:30.069Z,35.17
2023-03-03T16:13:01.089Z,26.30
2023-03-03T16:15:38.315Z,24.70
2023-03-03T16:18:08.840Z,23.83
2023-03-03T16:20:39.657Z,27.10
2023-03-03T16:23:22.630Z,27.67
2023-03-03T16:26:08.537Z,27.57
2023-03-03T16:28:46.554Z,27.93
2023-03-03T16:31:18.240Z,27.77
2023-03-03T16:33:51.697Z,28.30
2023-03-03T16:36:25.623Z,25.80
2023-03-03T16:38:58.764Z,29.43
2023-03-03T16:41:29.906Z,31.33
2023-03-03T16:44:05.631Z,30.73
2023-03-03T16:46:35.091Z,27.70
2023-03-03T16:49:07.970Z,28.10
2023-03-03T16:51:40.215Z,27.47
2023-03-03T16:54:10.601Z,31.07
2023-03-03T16:56:41.541Z,26.40
2023-03-03T16:59:30.789Z,27.90
2023-03-03T17:02:01.615Z,29.57
2023-03-03T17:04:36.949Z,28.87
2023-03-03T17:07:09.640Z,29.33
2023-03-03T17:09:57.238Z,32.80
2023-03-03T17:12:31.518Z,29.60
2023-03-03T17:15:08.667Z,31.30
2023-03-03T17:17:42.030Z,35.43
2023-03-03T17:20:17.553Z,34.20
2023-03-03T17:22:48.747Z,32.47
2023-03-03T17:25:20.699Z,37.60
2023-03-03T17:27:56.546Z,36.60
2023-03-03T17:30:27.809Z,37.33
2023-03-03T17:33:16.652Z,37.20
2023-03-03T17:35:49.554Z,31.67
2023-03-03T17:38:24.212Z,30.97
2023-03-03T17:40:56.727Z,33.23
2023-03-03T17:43:26.542Z,39.27
2023-03-03T17:45:59.164Z,33.90
2023-03-03T17:48:44.844Z,30.90
2023-03-03T17:51:27.042Z,31.53
2023-03-03T17:54:07.607Z,31.50
2023-03-03T17:56:41.082Z,30.50
2023-03-03T17:59:23.447Z,30.93
2023-03-03T18:02:00.614Z,32.10
2023-03-03T18:04:37.672Z,32.33
2023-03-03T18:07:15.298Z,27.60
2023-03-03T18:09:49.464Z,31.07
2023-03-03T18:12:23.202Z,32.90
2023-03-03T18:15:00.441Z,25.60
2023-03-03T18:17:41.819Z,30.37
2023-03-03T18:20:20.449Z,27.53
2023-03-03T18:22:50.850Z,27.33
2023-03-03T18:25:19.636Z,26.70
2023-03-03T18:27:48.243Z,27.70
2023-03-03T18:30:35.549Z,29.60
2023-03-03T18:33:08.548Z,28.50
2023-03-03T18:35:38.616Z,31.27
2023-03-03T18:38:24.443Z,28.47
2023-03-03T18:40:53.603Z,31.40
2023-03-03T18:43:40.163Z,31.63
2023-03-03T18:46:10.329Z,25.40
2023-03-03T18:48:50.362Z,26.70
2023-03-03T18:51:33.638Z,28.17
2023-03-03T18:54:02.248Z,26.80
2023-03-03T18:56:43.705Z,26.93
2023-03-03T18:59:11.760Z,31.07
2023-03-03T19:01:43.982Z,32.40
2023-03-03T19:04:21.245Z,28.87
2023-03-03T19:06:56.807Z,28.40
2023-03-03T19:09:39.424Z,27.70
2023-03-03T19:12:09.703Z,32.77
2023-03-03T19:14:38.944Z,29.47
2023-03-03T19:17:22.143Z,32.93
2023-03-03T19:20:02.878Z,33.90
2023-03-03T19:22:31.952Z,35.80
2023-03-03T19:25:15.321Z,30.03
2023-03-03T19:27:44.605Z,29.67
2023-03-03T19:30:15.259Z,34.50
2023-03-03T19:32:51.054Z,31.40
2023-03-03T19:35:25.360Z,31.77
2023-03-03T19:37:57.856Z,32.10
2023-03-03T19:40:30.826Z,29.90
2023-03-03T19:43:03.561Z,31.10
2023-03-03T19:45:38.054Z,32.00
2023-03-03T19:48:07.384Z,31.97
2023-03-03T19:50:44.261Z,33.27
2023-03-03T19:53:19.574Z,35.33
2023-03-03T19:55:55.141Z,31.20
2023-03-03T19:58:27.014Z,32.50
2023-03-03T20:00:58.585Z,32.57
2023-03-03T20:03:59.461Z,31.03
2023-03-03T20:06:35.815Z,28.87
2023-03-03T20:09:04.504Z,28.27
2023-03-03T20:11:46.178Z,28.90
2023-03-03T20:14:27.816Z,25.70
2023-03-03T20:16:58.236Z,30.70
2023-03-03T20:19:30.363Z,29.13
2023-03-03T20:22:05.380Z,29.30
2023-03-03T20:24:42.569Z,31.27
2023-03-03T20:27:14.961Z,28.20
2023-03-03T20:29:57.634Z,31.83
2023-03-03T20:32:30.815Z,30.37
2023-03-03T20:35:05.321Z,29.60
2023-03-03T20:37:44.729Z,26.27
2023-03-03T20:40:19.008Z,28.60
2023-03-03T20:42:52.916Z,27.33
2023-03-03T20:45:29.003Z,32.00
2023-03-03T20:48:04.154Z,30.60
2023-03-03T20:50:37.781Z,28.43
2023-03-03T20:53:11.511Z,28.67
2023-03-03T20:55:43.947Z,27.10
2023-03-03T20:58:18.821Z,29.10
2023-03-03T21:00:50.114Z,27.07
2023-03-03T21:03:20.518Z,25.77
2023-03-03T21:05:59.360Z,25.10
2023-03-03T21:08:53.197Z,25.30
2023-03-03T21:11:23.722Z,27.20
2023-03-03T21:13:54.050Z,27.23
2023-03-03T21:16:33.204Z,25.33
2023-03-03T21:19:03.024Z,26.13
2023-03-03T21:21:32.765Z,26.30
2023-03-03T21:24:00.544Z,25.20
2023-03-03T21:26:49.481Z,26.47
2023-03-03T21:29:18.699Z,25.50
2023-03-03T21:31:46.949Z,23.37
2023-03-03T21:34:25.870Z,24.70
2023-03-03T21:36:53.893Z,23.87
2023-03-03T21:39:26.524Z,27.30
2023-03-03T21:41:56.777Z,23.57
2023-03-03T21:44:35.968Z,26.30
2023-03-03T21:47:03.868Z,26.47
2023-03-03T21:49:31.554Z,28.10
2023-03-03T21:52:00.335Z,28.50
2023-03-03T21:54:27.975Z,26.50
2023-03-03T21:56:57.329Z,24.77
2023-03-03T21:59:25.578Z,22.10
2023-03-03T22:01:53.375Z,26.30
2023-03-03T22:04:21.035Z,24.43
2023-03-03T22:06:49.078Z,25.73
2023-03-03T22:09:16.861Z,24.73
2023-03-03T22:11:46.117Z,31.63
2023-03-03T22:14:15.405Z,30.60
2023-03-03T22:16:43.298Z,27.27
2023-03-03T22:19:11.152Z,27.03
2023-03-03T22:21:40.053Z,27.07
2023-03-03T22:24:08.703Z,23.97
2023-03-03T22:26:36.834Z,23.57
2023-03-03T22:29:04.660Z,24.33
2023-03-03T22:31:34.232Z,25.73
2023-03-03T22:34:02.521Z,22.33
2023-03-03T22:36:30.997Z,24.20
2023-03-03T22:38:58.776Z,28.40
2023-03-03T22:41:26.610Z,29.20
2023-03-03T22:43:54.628Z,36.00
2023-03-03T22:46:22.368Z,27.87
2023-03-03T22:48:51.764Z,29.90
2023-03-03T22:51:22.006Z,31.00
2023-03-03T22:53:49.924Z,31.53
2023-03-03T22:56:17.802Z,33.80
2023-03-03T22:58:45.476Z,38.07
2023-03-03T23:01:13.452Z,37.20
2023-03-03T23:03:41.569Z,39.40
2023-03-03T23:06:10.577Z,37.60
2023-03-03T23:08:38.233Z,40.30
2023-03-03T23:11:07.867Z,38.40
2023-03-03T23:13:36.186Z,41.10
2023-03-03T23:16:03.988Z,40.90
2023-03-03T23:18:31.978Z,42.97
2023-03-03T23:20:59.629Z,46.13
2023-03-03T23:23:30.635Z,44.07
2023-03-03T23:25:58.820Z,40.70
2023-03-03T23:28:26.902Z,44.03
2023-03-03T23:30:54.595Z,45.07
2023-03-03T23:33:22.329Z,46.40
2023-03-03T23:35:50.235Z,46.27
2023-03-03T23:38:18.297Z,42.93
2023-03-03T23:40:47.670Z,43.17
2023-03-03T23:43:16.235Z,44.97
2023-03-03T23:45:44.009Z,47.90
2023-03-03T23:48:12.143Z,47.53
2023-03-03T23:50:39.966Z,49.00
2023-03-03T23:53:08.499Z,47.70
2023-03-03T23:55:37.781Z,47.07
2023-03-03T23:58:06.995Z,46.00
